Flight Track Log - Related Links

Times and Time Zones

All times are in EDT time to prevent confusion due to time zone crossing. See the UAL4191 flight status page for this flight to view local times or setup timezone preferences in your user account.

Time Position Orientation Groundspeed Altitude Reporting Facility
EDT Latitude Longitude Course Direction KTS MPH feet Rate Location/Type
Mon 03:26:39 PM 29.9617 -95.3436 97° East 151 174 600  Level Houston Center
Mon 03:27:47 PM 29.9456 -95.2806 106° East 236 272 2,300 1,532 Climbing Houston Center
Mon 03:28:13 PM 29.9478 -95.2578 84° East 225 259 3,000 2,459 Climbing Houston Center
Mon 03:28:48 PM 29.9528 -95.2000 84° East 267 307 4,800 2,613 Climbing Houston Center
Mon 03:29:15 PM 29.9553 -95.1736 84° East 251 289 5,700 2,951 Climbing Houston Center
Mon 03:29:49 PM 29.9525 -95.1083 93° East 278 320 7,800 2,613 Climbing Houston Center
Mon 03:30:00 PM 29.9096 -94.7812 95° East  Level FlightAware Approximate
Mon 03:30:17 PM 29.9508 -95.0844 95° East 277 319 8,400  Level Houston Center
Mon 03:30:51 PM 29.9419 -95.0181 99° East 292 336 10,200 2,419 Climbing Houston Center
Mon 03:31:00 PM 29.8973 -94.6422 97° East  Level FlightAware Approximate
Mon 03:31:19 PM 29.9383 -94.9717 95° East 290 334 10,900  Level Houston Center
Mon 03:32:00 PM 29.8820 -94.5036 97° East  Level FlightAware Approximate
Mon 03:32:22 PM 29.9258 -94.8625 97° East 329 379 12,000  Level Houston Center
Mon 03:33:24 PM 29.9114 -94.7425 98° East 361 415 13,500 1,355 Climbing Houston Center
Mon 03:34:26 PM 29.8975 -94.6142 97° East 392 451 14,800 1,548 Climbing Houston Center
Mon 03:35:28 PM 29.8819 -94.4844 98° East 404 465 16,700 1,403 Climbing Houston Center
Mon 03:36:30 PM 29.8669 -94.3536 97° East 408 470 17,700 1,500 Climbing Houston Center
Mon 03:37:32 PM 29.8561 -94.1922 94° East 416 479 19,800 1,887 Climbing Houston Center
Mon 03:38:34 PM 29.8542 -94.0656 91° East 412 474 21,600 1,790 Climbing Houston Center
Mon 03:39:36 PM 29.8653 -93.9375 84° East 400 460 23,500 1,872 Climbing Houston Center
Mon 03:40:39 PM 29.8783 -93.8111 83° East 399 459 25,500 1,728 Climbing Houston Center
Mon 03:41:41 PM 29.8903 -93.6881 84° East 392 451 27,100 1,548 Climbing Houston Center
Mon 03:42:43 PM 29.9058 -93.5414 83° East 388 447 28,700 1,452 Climbing Houston Center
Mon 03:43:45 PM 29.9183 -93.4153 83° East 397 457 30,100 1,355 Climbing Houston Center
Mon 03:44:47 PM 29.9311 -93.2900 83° East 397 457 31,500 1,355 Climbing Houston Center
Mon 03:45:49 PM 29.9433 -93.1650 84° East 397 457 32,900 1,113 Climbing Houston Center
Mon 03:46:51 PM 29.9564 -93.0417 83° East 392 451 33,800 864 Climbing Houston Center
Mon 03:47:54 PM 29.9714 -92.8894 83° East 398 458 34,700 768 Climbing Houston Center
Mon 03:48:56 PM 29.9817 -92.7606 85° East 405 466 35,400 677 Climbing Houston Center
Mon 03:49:58 PM 29.9928 -92.6303 84° East 411 473 36,100 629 Climbing Houston Center
Mon 03:51:00 PM 30.0025 -92.4983 85° East 414 476 36,700 432 Climbing Houston Center
Mon 03:52:03 PM 30.0139 -92.3633 84° East 421 484 37,000 145 Climbing Houston Center
Mon 03:53:04 PM 30.0261 -92.1964 85° East 436 502 37,000  Level Houston Center
Mon 03:54:06 PM 30.0483 -92.0494 80° East 459 528 37,000  Level Houston Center
Mon 03:55:08 PM 30.0761 -91.9014 78° East 471 542 37,000  Level Houston Center
Mon 03:56:11 PM 30.1047 -91.7467 78° East 489 563 37,000  Level Houston Center
Mon 03:57:13 PM 30.1342 -91.5906 78° East 506 582 37,000  Level Houston Center
Mon 03:58:15 PM 30.1675 -91.3992 79° East 508 585 37,000  Level Houston Center
Mon 03:59:17 PM 30.1969 -91.2397 78° East 509 586 37,000  Level Houston Center
Mon 04:00:19 PM 30.2236 -91.0811 79° East 505 581 37,000  Level Houston Center
Mon 04:01:21 PM 30.2522 -90.9222 78° East 506 582 37,000  Level Houston Center
Mon 04:02:23 PM 30.2803 -90.7625 78° East 507 583 37,000  Level Houston Center
Mon 04:03:25 PM 30.3083 -90.6019 79° East 508 585 37,000  Level Houston Center
Mon 04:04:28 PM 30.3403 -90.4089 79° East 510 587 37,000  Level Houston Center
Mon 04:05:30 PM 30.3681 -90.2486 79° East 509 586 37,000  Level Houston Center
Mon 04:06:32 PM 30.3947 -90.0878 79° East 508 585 37,000  Level Houston Center
Mon 04:07:34 PM 30.4217 -89.9272 79° East 504 580 37,000  Level Houston Center
Mon 04:08:36 PM 30.4464 -89.7728 79° East 504 580 37,000  Level Houston Center
Mon 04:09:38 PM 30.4761 -89.5983 79° East 508 585 37,000  Level Houston Center
Mon 04:10:40 PM 30.5019 -89.4381 79° East 505 581 37,000  Level Houston Center
Mon 04:11:42 PM 30.5281 -89.2783 79° East 504 580 37,000  Level Houston Center
Mon 04:12:45 PM 30.5581 -89.0847 80° East 509 586 37,000  Level Houston Center
Mon 04:13:47 PM 30.5803 -88.9433 80° East 503 579 37,000  Level Houston Center
Mon 04:14:49 PM 30.6042 -88.7861 80° East 499 574 37,000  Level Houston Center
Mon 04:15:51 PM 30.6339 -88.5972 80° East 498 573 37,000  Level Houston Center
Mon 04:16:53 PM 30.6575 -88.4408 80° East 496 571 37,000  Level Houston Center
Mon 04:17:55 PM 30.6825 -88.2850 79° East 496 571 37,000  Level Houston Center
Mon 04:18:57 PM 30.7092 -88.1078 80° East 492 566 37,000  Level Houston Center
Mon 04:20:00 PM 30.7336 -87.9506 80° East 494 568 37,000  Level Houston Center
Mon 04:20:44 PM 30.7486 -87.8400 81° East 492 566 37,000  Level Jacksonville Center
Mon 04:21:44 PM 30.7692 -87.6842 81° East 492 566 37,000  Level Jacksonville Center
Mon 04:22:44 PM 30.7792 -87.5275 86° East 492 566 37,000  Level Jacksonville Center
Mon 04:23:44 PM 30.7897 -87.3492 86° East 498 573 37,000  Level Jacksonville Center
Mon 04:24:44 PM 30.7992 -87.1947 86° East 498 573 37,000  Level Jacksonville Center
Mon 04:25:44 PM 30.8086 -87.0356 86° East 493 567 37,000  Level Jacksonville Center
Mon 04:26:44 PM 30.8158 -86.8786 87° East 493 567 37,000  Level Jacksonville Center
Mon 04:27:44 PM 30.8269 -86.7244 85° East 493 567 37,000  Level Jacksonville Center
Mon 04:28:44 PM 30.8414 -86.5894 83° East 481 554 37,000  Level Jacksonville Center
Mon 04:29:44 PM 30.8708 -86.4333 78° East 481 554 37,000  Level Jacksonville Center
Mon 04:30:44 PM 30.9000 -86.2819 77° East 481 554 37,000  Level Jacksonville Center
Mon 04:31:44 PM 30.9267 -86.1328 78° East 481 554 37,000  Level Jacksonville Center
Mon 04:32:44 PM 30.9556 -85.9789 78° East 486 559 37,000  Level Jacksonville Center
Mon 04:33:44 PM 30.9847 -85.8150 78° East 481 554 37,000  Level Jacksonville Center
Mon 04:34:44 PM 31.0131 -85.6606 78° East 481 554 37,000  Level Jacksonville Center
Mon 04:35:44 PM 31.0392 -85.5086 79° East 481 554 37,000  Level Jacksonville Center
Mon 04:36:44 PM 31.0675 -85.3544 78° East 486 559 37,000 -100 Level Jacksonville Center
Mon 04:37:44 PM 31.0953 -85.1997 78° East 480 552 36,800 -600 Descending Jacksonville Center
Mon 04:38:44 PM 31.1189 -85.0500 80° East 480 552 35,800 -900 Descending Jacksonville Center
Mon 04:39:44 PM 31.1444 -84.8975 79° East 480 552 35,000 -400 Descending Jacksonville Center
Mon 04:40:44 PM 31.1717 -84.7475 78° East 475 547 35,000  Level Jacksonville Center
Mon 04:41:44 PM 31.1967 -84.5975 79° East 470 541 35,000  Level Jacksonville Center
Mon 04:42:44 PM 31.2239 -84.4450 78° East 470 541 35,000  Level Jacksonville Center
Mon 04:43:44 PM 31.2444 -84.2850 81° East 480 552 35,000  Level Jacksonville Center
Mon 04:44:44 PM 31.2106 -84.1314 104° East 475 547 35,000  Level Jacksonville Center
Mon 04:45:44 PM 31.1658 -83.9803 109° East 475 547 35,000 -950 Level Jacksonville Center
Mon 04:46:44 PM 31.1233 -83.8342 109° East 480 552 33,100 -1,900 Descending Jacksonville Center
Mon 04:47:44 PM 31.1431 -83.6717 82° East 474 545 31,200 -1,900 Descending Jacksonville Center
Mon 04:48:44 PM 31.1961 -83.5144 68° East 484 557 29,300 -1,100 Descending Jacksonville Center
Mon 04:49:44 PM 31.2492 -83.3639 68° East 496 571 29,000 -150 Descending Jacksonville Center
Mon 04:50:44 PM 31.3017 -83.2111 68° East 501 577 29,000  Level Jacksonville Center
Mon 04:51:44 PM 31.3500 -83.0603 69° East 506 582 29,000  Level Jacksonville Center
Mon 04:52:44 PM 31.4044 -82.9047 68° East 506 582 29,000  Level Jacksonville Center
Mon 04:53:44 PM 31.4544 -82.7514 69° East 506 582 29,000  Level Jacksonville Center
Mon 04:54:44 PM 31.5044 -82.5978 69° East 506 582 29,000  Level Jacksonville Center
Mon 04:55:44 PM 31.5603 -82.4489 66° East 506 582 29,000  Level Jacksonville Center
Mon 04:56:44 PM 31.6306 -82.3069 60° Northeast 494 568 29,000  Level Jacksonville Center
Mon 04:57:44 PM 31.6864 -82.1869 61° Northeast 474 545 29,000  Level Jacksonville Center
Mon 04:58:44 PM 31.7586 -82.0350 61° Northeast 474 545 29,000  Level Jacksonville Center
Mon 04:59:44 PM 31.8183 -81.9097 61° Northeast 480 552 29,000 -450 Level Jacksonville Center
Mon 05:00:44 PM 31.8900 -81.7547 61° Northeast 480 552 28,100 -1,350 Descending Jacksonville Center
Mon 05:01:44 PM 31.9575 -81.6094 61° Northeast 490 564 26,300 -1,850 Descending Jacksonville Center
Mon 05:02:44 PM 32.0167 -81.4814 61° Northeast 496 571 24,400 -1,950 Descending Jacksonville Center
Mon 05:03:44 PM 32.0797 -81.3406 62° Northeast 485 558 22,400 -2,000 Descending Jacksonville Center
Mon 05:04:44 PM 32.1428 -81.2094 60° Northeast 472 543 20,400 -2,050 Descending Jacksonville Center
Mon 05:05:44 PM 32.2142 -81.0878 55° Northeast 460 529 18,300 -2,000 Descending Jacksonville Center
Mon 05:06:44 PM 32.2919 -80.9708 52° Northeast 412 474 16,400 -1,900 Descending Jacksonville Center
Mon 05:07:44 PM 32.3531 -80.8736 53° Northeast 412 474 14,500 -2,000 Descending Jacksonville Center
Mon 05:08:44 PM 32.4161 -80.7714 54° Northeast 400 460 12,400 -1,800 Descending Jacksonville Center
Mon 05:09:44 PM 32.4789 -80.6714 53° Northeast 386 444 10,900 -750 Descending Jacksonville Center
Mon 05:10:44 PM 32.5400 -80.5736 53° Northeast 375 432 10,900  Level Jacksonville Center
Mon 05:11:44 PM 32.6006 -80.4736 54° Northeast 369 425 10,900 -150 Level Jacksonville Center
Mon 05:12:44 PM 32.6722 -80.4025 40° Northeast 360 414 10,600 -1,000 Descending Jacksonville Center
Mon 05:13:44 PM 32.7064 -80.3275 62° Northeast 290 334 8,900 -2,050 Descending Jacksonville Center
Mon 05:14:44 PM 32.6981 -80.2339 96° East 263 303 6,500 -2,300 Descending Jacksonville Center
Mon 05:15:44 PM 32.7300 -80.1664 61° Northeast 254 292 4,300 -1,800 Descending Jacksonville Center
Mon 05:16:44 PM 32.7769 -80.1181 41° Northeast 224 258 2,900 -1,400 Descending Jacksonville Center

Login

Don't have an account? Register now (free) for customized features, flight alerts, and more!